Time;durP1;ratioP1;P1;durP2;ratioP2;P2;SDS_P1;SDS_P2;PMS_P1;PMS_P2;Temp;Humidity;BMP_temperature;BMP_pressure;BME280_temperature;BME280_humidity;BME280_pressure;Samples;Min_cycle;Max_cycle;Signal;HPM_P1;HPM_P2
2022/01/31 00:01:35;;;;;;;1.20;0.90;;;0.40;99.90;;;;;;5050908;28;20447;-87
2022/01/31 00:04:02;;;;;;;0.77;0.77;;;0.40;99.90;;;;;;5058058;28;20482;-86
2022/01/31 00:06:29;;;;;;;1.10;0.90;;;0.10;99.90;;;;;;5068066;28;20468;-85
2022/01/31 00:08:57;;;;;;;0.80;0.77;;;-0.10;99.90;;;;;;5063834;28;20487;-86
2022/01/31 00:11:24;;;;;;;0.83;0.80;;;-0.10;99.90;;;;;;5051730;28;20467;-86
2022/01/31 00:13:59;;;;;;;0.73;0.73;;;0.00;99.90;;;;;;5039790;28;20461;-86
2022/01/31 00:16:32;;;;;;;1.67;1.17;;;-0.20;99.90;;;;;;5055332;28;20457;-85
2022/01/31 00:18:59;;;;;;;1.30;0.90;;;-0.50;99.90;;;;;;5047141;28;20469;-86
2022/01/31 00:21:26;;;;;;;1.03;1.00;;;-0.70;99.90;;;;;;5044733;28;20445;-86
2022/01/31 00:23:53;;;;;;;2.13;0.90;;;-0.50;99.90;;;;;;5053649;28;20448;-86
2022/01/31 00:26:22;;;;;;;0.80;0.80;;;-0.40;99.90;;;;;;5048278;28;20448;-86
2022/01/31 00:28:49;;;;;;;1.43;0.70;;;-0.20;99.90;;;;;;5038952;28;20481;-86
2022/01/31 00:31:16;;;;;;;0.70;0.70;;;-0.10;99.90;;;;;;5039332;28;20458;-86
2022/01/31 00:33:43;;;;;;;0.90;0.90;;;0.10;99.90;;;;;;5041836;28;20953;-86
2022/01/31 00:36:10;;;;;;;0.60;0.57;;;0.20;99.90;;;;;;5067041;28;20448;-86
2022/01/31 00:38:37;;;;;;;1.17;0.90;;;0.20;99.90;;;;;;5058364;28;20539;-86
2022/01/31 00:41:04;;;;;;;1.93;1.00;;;0.30;99.90;;;;;;5047416;28;20499;-85
2022/01/31 00:43:35;;;;;;;1.07;1.00;;;0.40;99.90;;;;;;5058765;28;20444;-86
2022/01/31 00:46:09;;;;;;;0.77;0.77;;;0.20;99.90;;;;;;5055866;28;20853;-86
2022/01/31 00:48:42;;;;;;;1.10;0.90;;;-0.30;99.90;;;;;;5043130;28;20484;-86
2022/01/31 00:51:09;;;;;;;1.00;0.90;;;-0.20;99.90;;;;;;5038720;28;20471;-86
2022/01/31 00:53:36;;;;;;;0.93;0.83;;;-0.10;99.90;;;;;;5047588;28;20455;-86
2022/01/31 00:56:03;;;;;;;1.10;0.80;;;0.00;99.90;;;;;;5047465;28;20440;-86
2022/01/31 00:58:32;;;;;;;1.27;1.17;;;0.00;99.90;;;;;;5053988;28;20583;-86
2022/01/31 01:00:59;;;;;;;1.93;0.90;;;0.10;99.90;;;;;;5053211;28;20447;-86
2022/01/31 01:03:26;;;;;;;1.73;1.07;;;0.10;99.90;;;;;;5052066;28;20448;-86
2022/01/31 01:05:53;;;;;;;1.63;1.17;;;0.10;99.90;;;;;;5058432;28;20445;-86
2022/01/31 01:08:19;;;;;;;0.87;0.87;;;0.10;99.90;;;;;;5067929;28;20548;-86
2022/01/31 01:10:47;;;;;;;4.90;1.00;;;-0.10;99.90;;;;;;5057420;28;20448;-86
2022/01/31 01:13:14;;;;;;;1.37;1.07;;;-0.60;99.90;;;;;;5056201;28;20441;-86
2022/01/31 01:15:42;;;;;;;0.73;0.73;;;-0.40;99.90;;;;;;5056364;28;20841;-86
2022/01/31 01:18:09;;;;;;;1.20;0.80;;;-0.30;99.90;;;;;;5042291;28;22278;-86
2022/01/31 01:20:36;;;;;;;0.93;0.83;;;-0.20;99.90;;;;;;5039889;28;20452;-86
2022/01/31 01:23:03;;;;;;;0.90;0.80;;;-0.10;99.90;;;;;;5043288;28;20506;-86
2022/01/31 01:25:31;;;;;;;0.60;0.60;;;0.00;99.90;;;;;;5049688;28;20445;-86
2022/01/31 01:27:58;;;;;;;1.50;0.80;;;0.00;99.90;;;;;;5038505;28;20480;-86
2022/01/31 01:30:25;;;;;;;0.97;0.90;;;0.10;99.90;;;;;;5057607;28;20546;-86
2022/01/31 01:33:04;;;;;;;1.30;1.20;;;0.10;99.90;;;;;;5056671;28;20455;-86
2022/01/31 01:35:33;;;;;;;1.27;1.17;;;0.00;99.90;;;;;;5071332;28;20444;-86
2022/01/31 01:38:05;;;;;;;1.50;1.20;;;-0.70;99.90;;;;;;5057288;28;20512;-86
2022/01/31 01:40:33;;;;;;;2.47;1.50;;;-1.10;99.90;;;;;;5063481;23;20503;-65
2022/01/31 01:43:00;;;;;;;1.33;1.23;;;-1.30;99.90;;;;;;5045882;28;20953;-56
2022/01/31 01:45:26;;;;;;;1.10;1.00;;;-1.40;99.90;;;;;;5048839;28;20470;-57
2022/01/31 01:47:55;;;;;;;1.30;1.20;;;-1.20;99.90;;;;;;5033128;28;20473;-56
2022/01/31 01:50:22;;;;;;;2.27;1.50;;;-1.00;99.90;;;;;;5050923;28;20509;-57
2022/01/31 01:52:50;;;;;;;2.40;2.03;;;-0.80;99.90;;;;;;5050774;28;20515;-55
2022/01/31 01:55:17;;;;;;;2.90;2.00;;;-0.80;99.90;;;;;;5048204;28;20460;-57
2022/01/31 01:57:44;;;;;;;2.07;1.97;;;-0.60;99.90;;;;;;5033306;28;20486;-56
2022/01/31 02:00:16;;;;;;;1.70;1.60;;;-0.50;99.90;;;;;;5050319;28;20502;-57
2022/01/31 02:02:44;;;;;;;1.57;1.23;;;-0.40;99.90;;;;;;5037078;28;20448;-56
2022/01/31 02:05:13;;;;;;;1.20;1.10;;;-0.90;99.90;;;;;;5056109;28;20799;-60
2022/01/31 02:07:40;;;;;;;1.13;1.03;;;-1.00;99.90;;;;;;5064140;28;20870;-57
2022/01/31 02:10:08;;;;;;;1.23;1.07;;;-0.80;99.90;;;;;;5055677;28;20510;-56
2022/01/31 02:12:41;;;;;;;1.23;1.13;;;-0.70;99.90;;;;;;5052070;28;20491;-57
2022/01/31 02:15:10;;;;;;;1.23;1.13;;;-0.60;99.90;;;;;;5035586;28;20445;-58
2022/01/31 02:17:37;;;;;;;2.20;2.00;;;-0.50;99.90;;;;;;5035287;28;20441;-58
2022/01/31 02:20:07;;;;;;;3.60;2.07;;;-0.40;99.90;;;;;;5038579;28;20490;-56
2022/01/31 02:22:35;;;;;;;1.47;1.37;;;-0.50;99.90;;;;;;5050228;28;20483;-58
2022/01/31 02:25:03;;;;;;;1.10;0.90;;;-0.60;99.90;;;;;;5048540;28;20483;-56
2022/01/31 02:27:32;;;;;;;1.00;0.73;;;-0.90;99.90;;;;;;5042183;28;20524;-56
2022/01/31 02:29:59;;;;;;;0.70;0.70;;;-1.40;99.90;;;;;;5050453;28;20513;-57
2022/01/31 02:32:26;;;;;;;2.60;1.03;;;-1.60;99.90;;;;;;5053489;28;20483;-57
2022/01/31 02:34:53;;;;;;;0.90;0.90;;;-1.60;99.90;;;;;;5055387;28;20496;-57
2022/01/31 02:37:21;;;;;;;1.23;0.87;;;-1.40;99.90;;;;;;5057620;28;20988;-57
2022/01/31 02:39:49;;;;;;;1.53;1.43;;;-1.30;99.90;;;;;;5053409;28;20508;-59
2022/01/31 02:42:16;;;;;;;1.00;0.80;;;-1.30;99.90;;;;;;5051442;28;20490;-58
2022/01/31 02:44:45;;;;;;;1.00;0.77;;;-1.30;99.90;;;;;;5034578;28;20480;-56
2022/01/31 02:47:13;;;;;;;0.90;0.90;;;-1.10;99.90;;;;;;5047211;28;20437;-57
2022/01/31 02:49:47;;;;;;;1.10;1.00;;;-1.00;99.90;;;;;;5053114;28;20525;-58
2022/01/31 02:52:15;;;;;;;1.20;1.00;;;-0.90;99.90;;;;;;5053127;28;20446;-57
2022/01/31 02:54:42;;;;;;;0.70;0.60;;;-0.80;99.90;;;;;;5054474;28;20474;-56
2022/01/31 02:57:11;;;;;;;0.73;0.73;;;-0.60;99.90;;;;;;5053626;28;20478;-57
2022/01/31 02:59:38;;;;;;;0.90;0.73;;;-0.60;99.90;;;;;;5049511;28;20445;-56
2022/01/31 03:02:06;;;;;;;1.07;1.07;;;-0.50;99.90;;;;;;5033866;28;20486;-56
2022/01/31 03:04:33;;;;;;;1.33;1.23;;;-0.80;99.90;;;;;;5044425;28;20484;-57
2022/01/31 03:07:00;;;;;;;2.40;0.80;;;-1.30;99.90;;;;;;5065824;28;20464;-57
2022/01/31 03:09:27;;;;;;;1.20;0.80;;;-1.20;99.90;;;;;;5037459;28;20907;-57
2022/01/31 03:11:54;;;;;;;0.80;0.67;;;-1.10;99.90;;;;;;5042827;28;20486;-57
2022/01/31 03:14:23;;;;;;;2.23;2.03;;;-1.00;99.90;;;;;;5035450;28;20449;-56
2022/01/31 03:16:50;;;;;;;2.07;1.50;;;-1.20;99.90;;;;;;5040167;28;20597;-57
2022/01/31 03:19:18;;;;;;;2.40;1.97;;;-1.40;99.90;;;;;;5046591;28;20467;-56
2022/01/31 03:21:46;;;;;;;1.57;1.47;;;-2.00;99.90;;;;;;5039494;28;20571;-57
2022/01/31 03:24:13;;;;;;;1.20;1.00;;;-2.30;99.90;;;;;;5035970;28;20444;-58
2022/01/31 03:26:41;;;;;;;1.13;0.80;;;-2.30;99.90;;;;;;5033080;28;20449;-58
2022/01/31 03:29:08;;;;;;;1.10;0.60;;;-2.10;99.90;;;;;;5032560;28;21010;-58
2022/01/31 03:31:36;;;;;;;4.10;2.50;;;-1.90;99.90;;;;;;5032815;28;20498;-58
2022/01/31 03:34:03;;;;;;;6.67;3.77;;;-1.60;99.90;;;;;;5047675;28;20498;-58
2022/01/31 03:36:31;;;;;;;3.03;2.80;;;-1.40;99.90;;;;;;5057652;28;20581;-58
2022/01/31 03:38:57;;;;;;;4.10;2.57;;;-1.30;99.90;;;;;;5046755;28;20494;-59
2022/01/31 03:41:25;;;;;;;2.03;1.80;;;-1.10;99.90;;;;;;5033549;28;20490;-57
2022/01/31 03:43:53;;;;;;;1.60;1.40;;;-1.50;99.90;;;;;;5041429;28;20444;-59
2022/01/31 03:46:20;;;;;;;1.63;1.53;;;-2.00;99.90;;;;;;5046520;28;20987;-57
2022/01/31 03:48:48;;;;;;;1.37;1.27;;;-1.90;99.90;;;;;;5032874;28;21031;-59
2022/01/31 03:51:15;;;;;;;0.80;0.80;;;-1.70;99.90;;;;;;5050958;28;20472;-57
2022/01/31 03:53:42;;;;;;;1.43;1.33;;;-1.50;99.90;;;;;;5052687;28;20480;-58
2022/01/31 03:56:09;;;;;;;1.20;1.00;;;-1.30;99.90;;;;;;5052799;28;20471;-56
2022/01/31 03:58:36;;;;;;;1.87;1.70;;;-1.20;99.90;;;;;;5041828;28;20487;-57
2022/01/31 04:01:03;;;;;;;1.70;1.60;;;-1.10;99.90;;;;;;5049381;28;20509;-57
2022/01/31 04:03:30;;;;;;;1.90;1.67;;;-1.00;99.90;;;;;;5052324;28;20459;-56
2022/01/31 04:05:59;;;;;;;1.83;1.20;;;-0.90;99.90;;;;;;5060570;28;20437;-56
2022/01/31 04:08:26;;;;;;;1.73;1.60;;;-1.00;99.90;;;;;;5068921;28;20487;-56
2022/01/31 04:10:53;;;;;;;2.30;2.00;;;-0.90;99.90;;;;;;5033793;28;20516;-56
2022/01/31 04:13:20;;;;;;;3.33;3.03;;;-1.10;99.90;;;;;;5033783;28;20472;-57
2022/01/31 04:15:47;;;;;;;7.13;3.70;;;-1.70;99.90;;;;;;5051019;28;20470;-56
2022/01/31 04:18:14;;;;;;;1.93;1.83;;;-2.10;99.90;;;;;;5035946;28;20973;-58
2022/01/31 04:20:42;;;;;;;1.70;1.60;;;-2.20;99.90;;;;;;5038764;28;20555;-57
2022/01/31 04:23:12;;;;;;;1.90;1.80;;;-2.30;99.90;;;;;;5034799;28;20468;-56
2022/01/31 04:25:52;;;;;;;2.17;1.20;;;-2.10;99.90;;;;;;5040839;28;20503;-57
2022/01/31 04:28:24;;;;;;;2.03;1.30;;;-1.90;99.90;;;;;;5051942;28;20454;-57
2022/01/31 04:30:56;;;;;;;3.20;2.30;;;-1.60;99.90;;;;;;5034203;28;20484;-55
2022/01/31 04:33:24;;;;;;;1.73;1.13;;;-1.50;99.90;;;;;;5031810;28;20451;-59
2022/01/31 04:35:52;;;;;;;2.30;1.30;;;-1.40;99.90;;;;;;5051377;28;20493;-57
2022/01/31 04:38:21;;;;;;;1.47;1.20;;;-1.40;99.90;;;;;;5056475;28;20453;-57
2022/01/31 04:40:48;;;;;;;2.30;1.63;;;-1.60;99.90;;;;;;5050396;28;21071;-58
2022/01/31 04:43:15;;;;;;;3.47;2.70;;;-1.40;99.90;;;;;;5045067;28;20520;-57
2022/01/31 04:45:46;;;;;;;2.60;2.40;;;-1.40;99.90;;;;;;5032109;28;20470;-58
2022/01/31 04:48:14;;;;;;;3.80;2.90;;;-1.40;99.90;;;;;;5051739;28;20516;-57
2022/01/31 04:50:41;;;;;;;2.93;2.73;;;-2.20;99.90;;;;;;5035063;28;20851;-57
2022/01/31 04:53:08;;;;;;;2.53;2.33;;;-2.00;99.90;;;;;;5032569;28;20479;-59
2022/01/31 04:55:37;;;;;;;1.70;1.37;;;-1.80;99.90;;;;;;5031193;28;20868;-58
2022/01/31 04:58:05;;;;;;;2.30;1.20;;;-1.60;99.90;;;;;;5031337;28;20473;-56
2022/01/31 05:00:32;;;;;;;1.83;1.23;;;-1.40;99.90;;;;;;5038059;28;20800;-57
2022/01/31 05:02:59;;;;;;;2.63;1.80;;;-1.30;99.90;;;;;;5040325;28;20531;-59
2022/01/31 05:05:26;;;;;;;2.03;1.87;;;-1.20;99.90;;;;;;5059121;28;20527;-58
2022/01/31 05:07:55;;;;;;;2.30;2.10;;;-1.10;99.90;;;;;;5058562;28;20466;-58
2022/01/31 05:10:22;;;;;;;10.37;7.47;;;-2.20;99.90;;;;;;5070683;28;20480;-57
2022/01/31 05:12:50;;;;;;;17.90;10.60;;;-2.20;99.90;;;;;;5034555;28;20837;-56
2022/01/31 05:15:17;;;;;;;11.70;7.17;;;-2.00;99.90;;;;;;5037115;28;20443;-56
2022/01/31 05:17:44;;;;;;;4.83;3.00;;;-1.80;99.90;;;;;;5038550;28;20472;-57
2022/01/31 05:20:12;;;;;;;3.73;2.50;;;-1.60;99.90;;;;;;5045552;28;20502;-56
2022/01/31 05:22:39;;;;;;;2.80;2.47;;;-1.40;99.90;;;;;;5050450;28;20444;-57
2022/01/31 05:25:06;;;;;;;3.70;2.30;;;-1.40;99.90;;;;;;5049375;28;20467;-56
2022/01/31 05:27:33;;;;;;;3.03;2.73;;;-1.50;99.90;;;;;;5050025;28;20487;-59
2022/01/31 05:30:02;;;;;;;2.43;2.23;;;-1.80;99.90;;;;;;5045986;28;20511;-58
2022/01/31 05:32:29;;;;;;;4.40;3.97;;;-1.80;99.90;;;;;;5050633;28;20474;-56
2022/01/31 05:34:56;;;;;;;3.53;3.20;;;-1.60;99.90;;;;;;5046742;28;20475;-57
2022/01/31 05:37:23;;;;;;;4.70;4.30;;;-1.50;99.90;;;;;;5048286;28;20496;-57
2022/01/31 05:39:50;;;;;;;4.33;4.03;;;-1.30;99.90;;;;;;5038767;28;20561;-56
2022/01/31 05:42:17;;;;;;;3.20;2.30;;;-1.50;99.90;;;;;;5050375;28;20511;-57
2022/01/31 05:44:47;;;;;;;3.00;2.30;;;-2.00;99.90;;;;;;5041117;28;20531;-58
2022/01/31 05:47:15;;;;;;;2.83;2.63;;;-2.00;99.90;;;;;;5042528;28;20443;-57
2022/01/31 05:49:42;;;;;;;2.63;2.43;;;-1.90;99.90;;;;;;5049950;28;20516;-58
2022/01/31 05:52:09;;;;;;;2.43;2.20;;;-1.70;99.90;;;;;;5049061;28;20472;-58
2022/01/31 05:54:38;;;;;;;2.97;2.77;;;-1.50;99.90;;;;;;5049740;28;20616;-57
2022/01/31 05:57:07;;;;;;;3.50;3.20;;;-1.30;99.90;;;;;;5050242;28;20489;-55
2022/01/31 05:59:34;;;;;;;3.70;3.20;;;-1.30;99.90;;;;;;5050442;28;20467;-58
2022/01/31 06:02:02;;;;;;;5.40;4.20;;;-1.20;99.90;;;;;;5050849;28;21019;-57
2022/01/31 06:04:31;;;;;;;5.67;3.97;;;-1.20;99.90;;;;;;5051210;28;20486;-58
2022/01/31 06:06:58;;;;;;;4.73;3.27;;;-1.10;99.90;;;;;;5062205;28;20471;-57
2022/01/31 06:09:27;;;;;;;4.77;3.00;;;-1.10;99.90;;;;;;5070587;28;20606;-58
2022/01/31 06:11:54;;;;;;;5.87;4.13;;;-1.00;99.90;;;;;;5070204;28;20568;-57
2022/01/31 06:14:21;;;;;;;4.27;3.97;;;-1.10;99.90;;;;;;5070511;28;20878;-58
2022/01/31 06:16:48;;;;;;;6.07;4.33;;;-1.10;99.90;;;;;;5070353;28;20485;-56
2022/01/31 06:19:15;;;;;;;5.07;4.30;;;-2.00;99.90;;;;;;5063463;28;20479;-57
2022/01/31 06:21:43;;;;;;;5.33;4.23;;;-1.90;99.90;;;;;;5050105;28;20941;-56
2022/01/31 06:24:13;;;;;;;3.83;3.20;;;-1.70;99.90;;;;;;5050334;28;20483;-56
2022/01/31 06:26:40;;;;;;;2.87;2.27;;;-1.60;99.90;;;;;;5050041;28;20489;-59
2022/01/31 06:29:07;;;;;;;3.50;2.27;;;-1.90;99.90;;;;;;5050498;28;20474;-56
2022/01/31 06:31:34;;;;;;;2.83;2.20;;;-2.30;99.90;;;;;;5049750;28;20561;-56
2022/01/31 06:34:02;;;;;;;4.07;2.53;;;-2.30;99.90;;;;;;5050296;28;20489;-58
2022/01/31 06:36:29;;;;;;;1.80;1.37;;;-2.00;99.90;;;;;;5056425;28;20438;-58
2022/01/31 06:38:58;;;;;;;1.80;1.17;;;-2.00;99.90;;;;;;5069146;28;20492;-58
2022/01/31 06:41:26;;;;;;;2.10;1.67;;;-2.00;99.90;;;;;;5069071;28;20990;-59
2022/01/31 06:43:54;;;;;;;4.07;3.50;;;-1.90;99.90;;;;;;5070586;28;20475;-56
2022/01/31 06:46:21;;;;;;;2.90;2.60;;;-1.70;99.90;;;;;;5064832;28;20470;-58
2022/01/31 06:48:48;;;;;;;4.73;3.60;;;-1.80;99.90;;;;;;5054096;28;20483;-59
2022/01/31 06:51:15;;;;;;;3.63;1.77;;;-1.60;99.90;;;;;;5052847;28;20931;-58
2022/01/31 06:53:42;;;;;;;2.97;2.30;;;-1.40;99.90;;;;;;5051962;28;20998;-58
2022/01/31 06:56:10;;;;;;;5.90;3.40;;;-1.20;99.90;;;;;;5052940;28;20440;-58
2022/01/31 06:58:37;;;;;;;3.33;3.00;;;-1.10;99.90;;;;;;5052249;28;20465;-57
2022/01/31 07:01:04;;;;;;;3.57;3.10;;;-1.10;99.90;;;;;;5052826;28;20509;-57
2022/01/31 07:03:31;;;;;;;5.77;3.10;;;-1.50;99.90;;;;;;5052818;28;20938;-58
2022/01/31 07:05:58;;;;;;;3.23;2.93;;;-1.70;99.90;;;;;;5062001;28;20483;-58
2022/01/31 07:08:25;;;;;;;2.13;1.90;;;-1.50;99.90;;;;;;5069923;28;20527;-58
2022/01/31 07:10:52;;;;;;;2.70;2.33;;;-1.40;99.90;;;;;;5073622;28;20513;-57
2022/01/31 07:13:35;;;;;;;7.57;2.37;;;-1.30;99.90;;;;;;5073514;28;20445;-57
2022/01/31 07:16:03;;;;;;;3.37;2.17;;;-1.30;99.90;;;;;;5074682;28;20478;-56
2022/01/31 07:18:31;;;;;;;1.90;1.80;;;-1.30;99.90;;;;;;5072985;28;20485;-58
2022/01/31 07:20:58;;;;;;;5.87;4.30;;;-1.40;99.90;;;;;;5054058;28;20469;-57
2022/01/31 07:23:27;;;;;;;5.40;3.60;;;-1.20;99.90;;;;;;5053961;28;20443;-58
2022/01/31 07:25:54;;;;;;;3.80;3.50;;;-1.00;99.90;;;;;;5054123;28;20455;-56
2022/01/31 07:28:24;;;;;;;3.70;3.30;;;-0.90;99.90;;;;;;5053476;28;20499;-58
2022/01/31 07:30:52;;;;;;;3.63;3.30;;;-0.80;99.90;;;;;;5053132;28;20853;-56
2022/01/31 07:33:20;;;;;;;3.90;2.90;;;-0.70;99.90;;;;;;5053163;28;20483;-60
2022/01/31 07:35:49;;;;;;;4.17;2.67;;;-0.70;99.90;;;;;;5062006;28;20512;-56
2022/01/31 07:38:16;;;;;;;4.23;3.83;;;-0.70;99.90;;;;;;5068916;28;20467;-57
2022/01/31 07:40:44;;;;;;;4.53;2.60;;;-1.10;99.90;;;;;;5072799;28;20505;-57
2022/01/31 07:43:11;;;;;;;6.57;3.70;;;-1.20;99.90;;;;;;5072873;28;20558;-58
2022/01/31 07:45:39;;;;;;;6.13;5.20;;;-1.00;99.90;;;;;;5073335;28;20540;-56
2022/01/31 07:48:06;;;;;;;8.53;5.20;;;-1.00;99.90;;;;;;5052072;28;20494;-57
2022/01/31 07:50:36;;;;;;;5.13;4.40;;;-0.90;99.90;;;;;;5051347;28;20540;-57
2022/01/31 07:53:04;;;;;;;5.07;4.47;;;-0.90;99.90;;;;;;5068197;23;20550;-50
2022/01/31 07:55:31;;;;;;;5.53;5.03;;;-0.70;99.90;;;;;;5052002;28;20444;-50
2022/01/31 07:57:58;;;;;;;5.60;4.60;;;-0.60;99.90;;;;;;5051552;28;20911;-52
2022/01/31 08:00:26;;;;;;;4.47;4.07;;;-0.70;99.90;;;;;;5051844;28;20440;-48
2022/01/31 08:02:56;;;;;;;5.80;4.57;;;-0.60;99.90;;;;;;5051543;28;20529;-51
2022/01/31 08:05:23;;;;;;;3.70;3.23;;;-0.50;99.90;;;;;;5059400;28;20465;-51
2022/01/31 08:07:50;;;;;;;4.70;3.30;;;-0.50;99.90;;;;;;5063348;28;20467;-51
2022/01/31 08:10:17;;;;;;;3.20;2.90;;;-0.50;99.90;;;;;;5071512;28;20515;-47
2022/01/31 08:12:44;;;;;;;4.27;3.40;;;-0.50;99.90;;;;;;5072471;28;20447;-54
2022/01/31 08:15:20;;;;;;;5.50;4.50;;;-0.70;99.90;;;;;;5071794;28;20443;-51
2022/01/31 08:17:47;;;;;;;7.50;5.80;;;-0.60;99.90;;;;;;5071727;28;20446;-49
2022/01/31 08:20:15;;;;;;;8.73;6.77;;;-0.50;99.90;;;;;;5056625;28;20472;-52
2022/01/31 08:22:42;;;;;;;6.70;4.90;;;-0.40;99.90;;;;;;5051872;28;20473;-51
2022/01/31 08:25:14;;;;;;;9.13;4.80;;;-0.30;99.90;;;;;;5051317;28;20491;-52
2022/01/31 08:27:43;;;;;;;4.87;4.47;;;-0.30;99.90;;;;;;5051618;28;20990;-49
2022/01/31 08:30:15;;;;;;;3.97;3.37;;;-0.60;99.90;;;;;;5051382;28;21083;-49
2022/01/31 08:32:47;;;;;;;5.17;4.10;;;-0.50;99.90;;;;;;5051373;28;20954;-50
2022/01/31 08:38:00;;;;;;;4.60;4.20;;;-0.30;99.90;;;;;;5057571;28;20428;-49
2022/01/31 08:40:27;;;;;;;5.40;4.17;;;-0.20;99.90;;;;;;5070993;28;20773;-52
2022/01/31 08:42:54;;;;;;;5.40;3.90;;;-0.60;99.90;;;;;;5071445;28;20491;-53
2022/01/31 08:45:21;;;;;;;5.33;3.60;;;-0.90;99.90;;;;;;5071300;28;20472;-47
2022/01/31 08:47:48;;;;;;;8.67;4.60;;;-1.00;99.90;;;;;;5053391;28;20473;-52
2022/01/31 08:50:16;;;;;;;4.40;4.00;;;-1.00;99.90;;;;;;5050256;28;20470;-51
2022/01/31 08:52:43;;;;;;;4.57;3.23;;;-0.80;99.90;;;;;;5051298;28;20473;-51
2022/01/31 08:55:11;;;;;;;5.83;4.20;;;-0.50;99.90;;;;;;5050955;28;20478;-52
2022/01/31 08:57:39;;;;;;;5.17;4.77;;;-0.40;99.90;;;;;;5050946;28;21041;-53
2022/01/31 09:00:07;;;;;;;4.60;4.30;;;-0.20;99.90;;;;;;5050852;28;20472;-50
2022/01/31 09:02:40;;;;;;;3.77;3.20;;;-0.40;99.90;;;;;;5050963;28;20474;-48
2022/01/31 09:05:07;;;;;;;6.63;5.90;;;-0.40;99.90;;;;;;5056360;28;20811;-51
2022/01/31 09:07:36;;;;;;;9.67;6.47;;;-0.30;99.90;;;;;;5062662;28;20476;-47
2022/01/31 09:10:04;;;;;;;6.07;5.30;;;-0.20;99.90;;;;;;5069582;28;20485;-51
2022/01/31 09:12:34;;;;;;;3.67;3.40;;;-0.50;99.90;;;;;;5071127;28;20435;-49
2022/01/31 09:15:01;;;;;;;5.27;3.90;;;-0.40;99.90;;;;;;5070221;28;20454;-47
2022/01/31 09:17:28;;;;;;;4.20;3.67;;;-0.20;99.90;;;;;;5070903;28;20442;-48
2022/01/31 09:19:55;;;;;;;6.50;3.33;;;-0.30;99.90;;;;;;5057808;28;20482;-49
2022/01/31 09:22:22;;;;;;;6.23;3.10;;;-0.20;99.90;;;;;;5051210;28;20534;-52
2022/01/31 09:24:51;;;;;;;5.27;3.03;;;-0.10;99.90;;;;;;5050668;28;20510;-51
2022/01/31 09:27:18;;;;;;;3.17;2.87;;;0.00;99.90;;;;;;5050636;28;20542;-51
2022/01/31 09:29:45;;;;;;;2.73;2.13;;;0.10;99.90;;;;;;5050630;28;20452;-52
2022/01/31 09:32:13;;;;;;;2.43;2.23;;;0.20;99.90;;;;;;5050043;28;20480;-51
2022/01/31 09:34:40;;;;;;;1.97;1.73;;;0.30;99.90;;;;;;5052560;28;20506;-51
2022/01/31 09:37:08;;;;;;;2.53;2.20;;;0.40;99.90;;;;;;5061913;28;20513;-51
2022/01/31 09:39:35;;;;;;;3.73;2.77;;;0.20;99.90;;;;;;5070349;28;20447;-52
2022/01/31 09:42:08;;;;;;;21.53;13.80;;;0.30;99.90;;;;;;5069898;28;20446;-53
2022/01/31 09:44:47;;;;;;;7.77;6.77;;;0.30;99.90;;;;;;5070324;28;20469;-50
2022/01/31 09:47:23;;;;;;;9.10;5.80;;;0.40;99.90;;;;;;5056453;28;20441;-52
2022/01/31 09:49:52;;;;;;;5.50;4.80;;;0.20;99.90;;;;;;5050277;28;20810;-50
2022/01/31 09:52:19;;;;;;;3.33;2.87;;;0.30;99.90;;;;;;5050136;28;20522;-52
2022/01/31 09:54:48;;;;;;;2.73;2.47;;;0.40;99.90;;;;;;5049868;28;20518;-52
2022/01/31 09:57:18;;;;;;;1.73;1.57;;;0.00;99.90;;;;;;5050007;28;20806;-54
2022/01/31 09:59:45;;;;;;;3.73;3.30;;;0.20;99.90;;;;;;5049934;28;20481;-53
2022/01/31 10:02:14;;;;;;;6.13;4.40;;;0.30;99.90;;;;;;5050158;28;20487;-52
2022/01/31 10:04:45;;;;;;;5.63;5.03;;;0.40;99.90;;;;;;5052144;28;20477;-51
2022/01/31 10:07:14;;;;;;;5.80;4.03;;;0.50;99.90;;;;;;5061812;28;20434;-48
2022/01/31 10:09:46;;;;;;;3.90;3.50;;;0.60;99.90;;;;;;5070090;28;20538;-49
2022/01/31 10:12:23;;;;;;;5.77;5.00;;;0.60;99.90;;;;;;5069723;28;20484;-51
2022/01/31 10:17:38;;;;;;;4.40;3.70;;;0.70;99.90;;;;;;5069795;28;20420;-52
2022/01/31 10:20:08;;;;;;;5.43;3.20;;;0.80;99.90;;;;;;5056499;28;20473;-51
2022/01/31 10:22:39;;;;;;;4.30;3.10;;;0.90;99.90;;;;;;5052731;28;20468;-52
2022/01/31 10:25:10;;;;;;;14.93;3.30;;;1.00;99.90;;;;;;5053620;28;20948;-51
2022/01/31 10:27:38;;;;;;;3.73;2.77;;;1.00;99.90;;;;;;5053892;28;20476;-53
2022/01/31 10:30:11;;;;;;;5.67;3.93;;;1.10;99.90;;;;;;5053596;28;20914;-52
2022/01/31 10:32:41;;;;;;;3.03;2.73;;;1.10;99.90;;;;;;5053411;28;20512;-52
2022/01/31 10:35:10;;;;;;;2.90;2.50;;;1.20;99.90;;;;;;5059954;28;20480;-53
2022/01/31 10:37:40;;;;;;;2.63;2.37;;;1.20;99.90;;;;;;5064863;28;20447;-51
2022/01/31 10:45:53;;;;;;;6.40;2.70;;;1.40;99.90;;;;;;5073384;28;20944;-51
2022/01/31 10:51:42;;;;;;;5.00;2.33;;;1.50;99.90;;;;;;5051688;28;20476;-52
2022/01/31 10:54:11;;;;;;;2.70;2.00;;;1.50;99.90;;;;;;5042430;28;20469;-52
2022/01/31 10:56:41;;;;;;;5.47;2.50;;;1.60;99.90;;;;;;5034751;28;20446;-51
2022/01/31 10:59:11;;;;;;;4.07;3.07;;;1.60;99.90;;;;;;5033471;28;20442;-48
2022/01/31 11:01:41;;;;;;;3.10;2.70;;;1.60;99.90;;;;;;5051799;28;20456;-49
2022/01/31 11:04:10;;;;;;;3.43;2.20;;;1.50;99.90;;;;;;5053009;28;20492;-51
2022/01/31 11:06:39;;;;;;;2.70;2.50;;;1.60;99.90;;;;;;5063116;28;20445;-53
2022/01/31 11:09:09;;;;;;;9.83;3.97;;;1.70;99.90;;;;;;5035803;28;20994;-52
2022/01/31 11:11:37;;;;;;;6.73;3.17;;;1.80;99.90;;;;;;5052223;28;20477;-51
2022/01/31 11:14:05;;;;;;;18.63;10.90;;;1.80;99.90;;;;;;5052933;28;20497;-51
2022/01/31 11:16:33;;;;;;;12.60;7.77;;;1.90;99.90;;;;;;5052757;28;20469;-51
2022/01/31 11:19:06;;;;;;;4.27;2.93;;;1.90;99.90;;;;;;5045461;28;20453;-51
2022/01/31 11:21:35;;;;;;;6.20;3.90;;;1.80;99.90;;;;;;5046462;28;20477;-52
2022/01/31 11:24:04;;;;;;;3.70;3.20;;;1.80;99.90;;;;;;5050797;28;20572;-48
2022/01/31 11:26:37;;;;;;;6.30;3.70;;;1.80;99.90;;;;;;5052661;28;20871;-52
2022/01/31 11:29:07;;;;;;;4.80;3.87;;;1.90;99.90;;;;;;5052063;28;20923;-51
2022/01/31 11:31:37;;;;;;;3.10;2.73;;;1.90;99.90;;;;;;5050590;28;20474;-50
2022/01/31 11:34:06;;;;;;;5.17;3.27;;;1.90;99.90;;;;;;5037491;28;21021;-48
2022/01/31 11:36:35;;;;;;;4.20;3.80;;;2.00;99.90;;;;;;5049687;28;20536;-49
2022/01/31 11:39:07;;;;;;;4.07;3.70;;;2.10;99.90;;;;;;5039029;28;20459;-51
2022/01/31 11:41:34;;;;;;;6.63;3.97;;;2.10;99.90;;;;;;5040533;28;20442;-51
2022/01/31 11:44:14;;;;;;;6.13;3.60;;;2.10;99.90;;;;;;5040724;28;20548;-49
2022/01/31 11:46:41;;;;;;;6.70;3.77;;;2.10;99.90;;;;;;5040152;28;20470;-53
2022/01/31 11:49:14;;;;;;;5.63;3.77;;;2.10;99.90;;;;;;5041769;28;20489;-51
2022/01/31 11:52:01;;;;;;;5.00;3.90;;;2.20;99.90;;;;;;5042943;28;20555;-50
2022/01/31 11:54:29;;;;;;;6.60;3.33;;;2.10;99.90;;;;;;5032580;28;20480;-53
2022/01/31 11:56:56;;;;;;;4.90;3.43;;;2.10;99.90;;;;;;5045925;28;20558;-52
2022/01/31 11:59:24;;;;;;;5.03;3.53;;;2.10;99.90;;;;;;5051239;28;20481;-51
2022/01/31 12:01:52;;;;;;;3.00;2.80;;;2.10;99.90;;;;;;5051687;28;20488;-48
2022/01/31 12:04:24;;;;;;;5.23;3.50;;;2.10;99.90;;;;;;5046166;28;20477;-51
2022/01/31 12:06:51;;;;;;;4.33;3.90;;;2.20;99.90;;;;;;5053381;28;20479;-53
2022/01/31 12:09:21;;;;;;;5.80;3.80;;;2.20;99.90;;;;;;5035184;28;20477;-48
2022/01/31 12:12:03;;;;;;;6.43;4.17;;;2.10;99.90;;;;;;5034642;28;20626;-49
2022/01/31 12:14:43;;;;;;;5.10;3.47;;;2.10;99.90;;;;;;5033222;28;20493;-52
2022/01/31 12:18:00;;;;;;;5.67;4.17;;;2.10;99.90;;;;;;5031256;28;20534;-50
2022/01/31 12:23:39;;;;;;;4.43;3.63;;;2.10;99.90;;;;;;5041474;28;21060;-51
2022/01/31 12:26:29;;;;;;;6.13;3.93;;;2.00;99.90;;;;;;5048401;28;20473;-52
2022/01/31 12:28:57;;;;;;;7.93;2.90;;;1.80;99.90;;;;;;5055755;28;20952;-49
2022/01/31 12:31:28;;;;;;;4.60;4.20;;;1.80;99.90;;;;;;5044687;28;20485;-51
2022/01/31 12:33:56;;;;;;;3.83;3.50;;;1.80;99.90;;;;;;5042381;28;20515;-51
2022/01/31 12:36:50;;;;;;;5.20;4.20;;;1.90;99.90;;;;;;5053970;28;20465;-53
2022/01/31 12:40:04;;;;;;;4.97;3.93;;;2.00;99.90;;;;;;5047685;28;21014;-50
2022/01/31 12:42:56;;;;;;;8.67;4.90;;;1.90;99.90;;;;;;5046364;28;20473;-52
2022/01/31 12:45:31;;;;;;;4.57;4.20;;;1.80;99.90;;;;;;5048363;28;20445;-48
2022/01/31 12:48:22;;;;;;;5.37;4.87;;;1.50;99.90;;;;;;5049975;28;20528;-48
2022/01/31 12:51:13;;;;;;;5.07;4.60;;;1.60;99.90;;;;;;5047754;28;20477;-52
2022/01/31 12:53:47;;;;;;;10.20;5.53;;;1.60;99.90;;;;;;5043991;28;20473;-51
2022/01/31 12:56:23;;;;;;;6.00;5.40;;;1.70;99.90;;;;;;5050998;28;20959;-49
2022/01/31 12:58:56;;;;;;;5.23;4.80;;;1.70;99.90;;;;;;5043411;28;20604;-47
2022/01/31 13:01:25;;;;;;;4.77;4.37;;;1.60;99.90;;;;;;5049441;28;20469;-51
2022/01/31 13:03:53;;;;;;;6.03;5.53;;;1.60;99.90;;;;;;5049702;28;20500;-52
2022/01/31 13:06:32;;;;;;;4.93;4.43;;;1.50;99.90;;;;;;5052659;28;20491;-49
2022/01/31 13:09:06;;;;;;;7.57;4.90;;;1.40;99.90;;;;;;5046710;28;20485;-50
2022/01/31 13:11:33;;;;;;;8.40;4.73;;;1.20;99.90;;;;;;5049542;28;20484;-53
2022/01/31 13:14:05;;;;;;;20.63;18.37;;;1.10;99.90;;;;;;5049653;28;20951;-51
2022/01/31 13:16:43;;;;;;;11.20;10.00;;;1.10;99.90;;;;;;5048269;28;20875;-51
2022/01/31 13:19:16;;;;;;;8.83;7.77;;;1.10;99.90;;;;;;5043159;28;20846;-52